Time;durP1;ratioP1;P1;durP2;ratioP2;P2;SDS_P1;SDS_P2;PMS_P1;PMS_P2;Temp;Humidity;BMP_temperature;BMP_pressure;BME280_temperature;BME280_humidity;BME280_pressure;Samples;Min_cycle;Max_cycle;Signal;HPM_P1;HPM_P2
2022/06/17 04:02:37;;;;;;;4.30;3.30;;;12.70;99.90;;;;;;4933928;29;20056;-77
2022/06/17 04:05:14;;;;;;;5.57;3.50;;;12.80;99.90;;;;;;4937750;28;20048;-77
2022/06/17 04:07:40;;;;;;;3.92;3.30;;;12.80;99.90;;;;;;4935427;28;20490;-76
2022/06/17 04:10:06;;;;;;;4.95;3.72;;;12.80;99.90;;;;;;4935742;28;20048;-76
2022/06/17 04:12:34;;;;;;;5.15;3.22;;;12.80;99.90;;;;;;4934689;29;20965;-76
2022/06/17 04:15:00;;;;;;;6.18;3.53;;;12.70;99.90;;;;;;4986685;23;20106;-72
2022/06/17 04:17:37;;;;;;;3.70;3.35;;;12.70;99.90;;;;;;4974953;28;20070;-74
2022/06/17 04:20:34;;;;;;;3.80;3.50;;;12.60;99.90;;;;;;4975002;28;20480;-72
2022/06/17 04:23:13;;;;;;;5.38;3.30;;;12.60;99.90;;;;;;4957851;28;20035;-72
2022/06/17 04:25:42;;;;;;;5.43;3.80;;;12.70;99.90;;;;;;4975367;28;20040;-72
2022/06/17 04:28:13;;;;;;;3.97;3.50;;;12.70;99.90;;;;;;4973574;28;20035;-72
2022/06/17 04:30:46;;;;;;;4.43;3.30;;;12.80;99.90;;;;;;4974282;28;20095;-74
2022/06/17 04:33:23;;;;;;;4.80;3.78;;;12.80;99.90;;;;;;4956053;28;20064;-71
2022/06/17 04:36:01;;;;;;;5.13;3.47;;;12.90;99.90;;;;;;4956301;28;20040;-75
2022/06/17 04:38:31;;;;;;;3.95;3.40;;;13.00;99.90;;;;;;4960026;28;20571;-73
2022/06/17 04:41:00;;;;;;;3.67;3.35;;;13.00;99.90;;;;;;4971611;28;20043;-72
2022/06/17 04:43:47;;;;;;;3.90;3.60;;;13.10;99.90;;;;;;4955590;28;20075;-72
2022/06/17 04:46:20;;;;;;;5.50;3.75;;;13.20;99.90;;;;;;4954281;28;20258;-72
2022/06/17 04:48:48;;;;;;;5.32;3.40;;;13.20;99.90;;;;;;4961554;28;20112;-72
2022/06/17 04:51:14;;;;;;;3.88;3.20;;;13.30;99.90;;;;;;4969882;28;20040;-72
2022/06/17 04:53:44;;;;;;;4.55;3.42;;;13.30;99.90;;;;;;4955840;28;20401;-72
2022/06/17 04:56:46;;;;;;;4.82;3.28;;;13.40;99.90;;;;;;4955506;28;20043;-72
2022/06/17 04:59:30;;;;;;;5.28;3.20;;;13.40;99.90;;;;;;4944190;28;20136;-72
2022/06/17 05:01:57;;;;;;;5.38;3.30;;;13.40;99.90;;;;;;4957528;28;20039;-72
2022/06/17 05:04:24;;;;;;;5.50;3.67;;;13.50;99.90;;;;;;4970629;28;20481;-73
2022/06/17 05:06:50;;;;;;;3.95;3.15;;;13.50;99.90;;;;;;4955481;28;20039;-72
2022/06/17 05:09:30;;;;;;;3.70;3.30;;;13.50;99.90;;;;;;4967227;28;20039;-72
2022/06/17 05:12:05;;;;;;;4.20;3.30;;;13.60;99.90;;;;;;4966657;28;20032;-72
2022/06/17 05:15:03;;;;;;;4.32;3.65;;;13.70;99.90;;;;;;4957206;28;20048;-72
2022/06/17 05:17:29;;;;;;;6.85;4.40;;;13.70;99.90;;;;;;4956656;28;20040;-72
2022/06/17 05:19:54;;;;;;;5.68;4.25;;;13.80;99.90;;;;;;4960004;28;20040;-72
2022/06/17 05:22:31;;;;;;;5.80;4.40;;;13.90;99.90;;;;;;4971755;28;20046;-74
2022/06/17 05:24:58;;;;;;;8.60;4.00;;;14.00;99.90;;;;;;4978096;28;20099;-72
2022/06/17 05:27:24;;;;;;;6.68;4.13;;;14.20;99.90;;;;;;4976567;28;20726;-72
2022/06/17 05:29:49;;;;;;;6.22;3.58;;;14.30;99.90;;;;;;4962727;28;20044;-72
2022/06/17 05:32:19;;;;;;;5.13;3.45;;;14.50;99.90;;;;;;4973441;28;20063;-72
2022/06/17 05:34:45;;;;;;;4.47;3.72;;;14.60;99.90;;;;;;4977948;28;20039;-71
2022/06/17 05:37:10;;;;;;;6.45;3.72;;;14.60;99.90;;;;;;4977574;28;20071;-72
2022/06/17 05:39:36;;;;;;;4.70;3.45;;;14.80;99.90;;;;;;4978108;28;20560;-72
2022/06/17 05:42:02;;;;;;;5.93;4.10;;;14.80;99.90;;;;;;4976282;28;20453;-72
2022/06/17 05:44:27;;;;;;;4.38;3.85;;;15.00;99.90;;;;;;4977940;28;20513;-74
2022/06/17 05:46:53;;;;;;;6.30;4.00;;;15.10;99.90;;;;;;4961806;28;20549;-72
2022/06/17 05:49:18;;;;;;;5.70;4.05;;;15.30;99.90;;;;;;4958117;28;20027;-72
2022/06/17 05:51:44;;;;;;;5.07;3.70;;;15.40;99.90;;;;;;4973801;28;20421;-73
2022/06/17 05:54:10;;;;;;;5.78;3.38;;;15.50;99.90;;;;;;4977901;28;20501;-72
2022/06/17 05:56:35;;;;;;;4.57;3.35;;;15.70;99.90;;;;;;4976114;28;20041;-72
2022/06/17 05:59:01;;;;;;;7.10;3.25;;;15.80;99.90;;;;;;4977445;28;20039;-73
2022/06/17 06:01:26;;;;;;;5.57;3.20;;;15.90;99.90;;;;;;4964872;28;20036;-72
2022/06/17 06:03:52;;;;;;;4.90;2.50;;;16.00;99.90;;;;;;4972184;28;20051;-72
2022/06/17 06:06:17;;;;;;;4.22;2.92;;;16.20;99.90;;;;;;4977205;28;20044;-72
2022/06/17 06:08:43;;;;;;;4.05;2.03;;;16.30;99.90;;;;;;4976986;28;20031;-74
2022/06/17 06:11:08;;;;;;;2.10;1.80;;;16.50;99.90;;;;;;4966089;28;20506;-72
2022/06/17 06:13:34;;;;;;;2.40;1.50;;;16.70;99.90;;;;;;4957858;28;20039;-72
2022/06/17 06:16:01;;;;;;;2.63;1.65;;;16.80;99.90;;;;;;4957723;28;20114;-76
2022/06/17 06:18:30;;;;;;;3.40;1.40;;;17.00;99.90;;;;;;4971529;28;20062;-71
2022/06/17 06:20:56;;;;;;;5.07;1.90;;;17.10;99.90;;;;;;4975644;28;20135;-72
2022/06/17 06:23:22;;;;;;;3.53;1.83;;;17.20;99.90;;;;;;4977001;28;20044;-76
2022/06/17 06:25:47;;;;;;;4.85;1.80;;;17.30;99.90;;;;;;4977122;28;20039;-72
2022/06/17 06:28:20;;;;;;;2.45;1.70;;;17.40;99.00;;;;;;4976154;28;20027;-71
2022/06/17 06:31:14;;;;;;;5.15;1.80;;;17.50;99.70;;;;;;4977279;28;20035;-71
2022/06/17 06:33:40;;;;;;;3.28;2.22;;;17.70;98.10;;;;;;4975908;28;20043;-72
2022/06/17 06:36:06;;;;;;;2.80;1.70;;;17.80;97.40;;;;;;4977254;28;20039;-71
2022/06/17 06:38:32;;;;;;;4.75;2.00;;;17.80;96.80;;;;;;4977462;28;20031;-69
2022/06/17 06:40:58;;;;;;;3.05;1.70;;;17.90;97.50;;;;;;4966157;28;20039;-70
2022/06/17 06:43:24;;;;;;;7.10;1.98;;;18.00;97.60;;;;;;4977230;28;20027;-71
2022/06/17 06:45:52;;;;;;;4.95;2.15;;;18.30;95.90;;;;;;4977196;28;20528;-74
2022/06/17 06:48:23;;;;;;;3.35;1.77;;;18.40;94.50;;;;;;4977127;28;20040;-72
2022/06/17 06:50:48;;;;;;;3.13;1.55;;;18.60;94.30;;;;;;4965830;28;20027;-72
2022/06/17 06:53:14;;;;;;;6.60;1.80;;;18.80;93.80;;;;;;4957958;28;20490;-73
2022/06/17 06:55:41;;;;;;;2.28;1.95;;;18.90;93.50;;;;;;4957456;28;20793;-72
2022/06/17 06:58:14;;;;;;;2.95;1.98;;;19.10;93.80;;;;;;4955691;28;20062;-71
2022/06/17 07:00:45;;;;;;;4.40;1.77;;;19.20;93.00;;;;;;4962018;28;20035;-72
2022/06/17 07:03:12;;;;;;;4.35;2.08;;;19.30;93.20;;;;;;4976956;28;20043;-73
2022/06/17 07:05:41;;;;;;;5.85;2.00;;;19.50;93.20;;;;;;4976328;28;20047;-72
2022/06/17 07:08:10;;;;;;;4.03;1.85;;;19.60;93.00;;;;;;4976652;28;20031;-71
2022/06/17 07:10:36;;;;;;;3.67;1.80;;;19.70;92.10;;;;;;4975496;28;20039;-72
2022/06/17 07:13:02;;;;;;;2.90;2.10;;;19.60;91.90;;;;;;4977058;28;20453;-71
2022/06/17 07:15:29;;;;;;;4.07;1.90;;;19.90;92.50;;;;;;4976433;28;20091;-73
2022/06/17 07:17:54;;;;;;;4.15;1.80;;;20.10;91.70;;;;;;4976736;28;20195;-72
2022/06/17 07:20:20;;;;;;;2.15;1.80;;;20.40;91.40;;;;;;4976834;28;20647;-71
2022/06/17 07:22:46;;;;;;;5.25;2.33;;;20.70;91.00;;;;;;4976849;28;20509;-75
2022/06/17 07:25:12;;;;;;;3.20;2.08;;;21.00;88.30;;;;;;4976617;28;20073;-72
2022/06/17 07:27:38;;;;;;;3.80;1.70;;;21.10;87.50;;;;;;4976386;28;20378;-71
2022/06/17 07:30:04;;;;;;;2.13;1.70;;;21.40;88.80;;;;;;4976686;28;20031;-73
2022/06/17 07:32:29;;;;;;;3.67;1.90;;;21.70;85.30;;;;;;4976344;28;20046;-70
2022/06/17 07:34:55;;;;;;;5.97;2.03;;;21.80;86.50;;;;;;4976484;28;20043;-71
2022/06/17 07:40:05;;;;;;;2.40;1.90;;;22.20;85.00;;;;;;4976689;28;20087;-71
2022/06/17 07:42:40;;;;;;;1.60;1.50;;;22.30;85.70;;;;;;4976420;28;20055;-72
2022/06/17 07:45:12;;;;;;;2.67;1.70;;;22.30;83.10;;;;;;4958260;28;20050;-74
2022/06/17 07:47:40;;;;;;;2.92;1.90;;;22.40;83.50;;;;;;4956828;28;20532;-75
2022/06/17 07:50:07;;;;;;;2.58;1.60;;;22.60;82.20;;;;;;4959200;28;20655;-70
2022/06/17 07:52:33;;;;;;;4.13;1.85;;;22.70;81.30;;;;;;4955242;28;20106;-70
2022/06/17 07:54:59;;;;;;;5.10;2.00;;;22.60;82.80;;;;;;4955175;28;20067;-70
2022/06/17 07:57:24;;;;;;;4.22;1.70;;;22.60;81.80;;;;;;4956691;28;20055;-72
2022/06/17 07:59:50;;;;;;;7.63;2.15;;;22.90;81.10;;;;;;4965462;28;20043;-70
2022/06/17 08:02:16;;;;;;;2.42;1.70;;;23.00;80.70;;;;;;4964309;28;20073;-70
2022/06/17 08:04:42;;;;;;;5.32;1.90;;;23.20;79.50;;;;;;4975596;28;20047;-70
2022/06/17 08:07:09;;;;;;;6.68;1.83;;;23.50;79.40;;;;;;4975920;28;20039;-71
2022/06/17 08:09:35;;;;;;;4.00;2.00;;;23.40;81.10;;;;;;4974925;28;20039;-70
2022/06/17 08:12:01;;;;;;;4.03;1.67;;;23.50;76.70;;;;;;4958089;28;20044;-69
2022/06/17 08:14:27;;;;;;;3.55;2.00;;;23.60;78.30;;;;;;4956246;28;20429;-70
2022/06/17 08:16:52;;;;;;;4.93;1.80;;;23.70;79.80;;;;;;4956473;28;20039;-72
2022/06/17 08:19:19;;;;;;;5.68;2.10;;;23.60;75.80;;;;;;4956837;28;20047;-71
2022/06/17 08:21:44;;;;;;;2.97;1.95;;;23.60;79.60;;;;;;4976117;28;20031;-74
2022/06/17 08:24:10;;;;;;;4.63;2.17;;;23.50;78.00;;;;;;4974668;28;20058;-72
2022/06/17 08:26:36;;;;;;;4.60;2.03;;;23.60;77.40;;;;;;4960920;28;20127;-71
2022/06/17 08:29:01;;;;;;;3.03;2.17;;;23.70;75.30;;;;;;4956590;28;20035;-72
2022/06/17 08:31:27;;;;;;;2.97;2.00;;;23.90;74.20;;;;;;4973572;28;20374;-72
2022/06/17 08:33:52;;;;;;;8.23;2.10;;;24.00;76.00;;;;;;4975383;28;20552;-72
2022/06/17 08:36:22;;;;;;;3.17;2.28;;;24.10;76.50;;;;;;4975666;28;20039;-72
2022/06/17 08:38:59;;;;;;;4.78;2.40;;;24.20;78.00;;;;;;4975664;28;20582;-72
2022/06/17 08:41:34;;;;;;;4.10;2.47;;;24.40;74.10;;;;;;4957529;28;20051;-72
2022/06/17 08:44:12;;;;;;;3.42;2.15;;;24.30;75.90;;;;;;4956603;28;20035;-72
2022/06/17 08:47:14;;;;;;;7.10;2.40;;;24.30;73.90;;;;;;4959727;28;20443;-72
2022/06/17 08:50:05;;;;;;;4.80;2.70;;;24.50;72.80;;;;;;4960357;28;20039;-73
2022/06/17 08:52:55;;;;;;;4.78;2.30;;;25.00;70.90;;;;;;4959766;28;20039;-72
2022/06/17 08:55:54;;;;;;;6.82;2.20;;;25.40;70.40;;;;;;4959429;28;20129;-72
2022/06/17 08:58:41;;;;;;;2.60;2.28;;;25.60;70.50;;;;;;4958547;28;20047;-72
2022/06/17 09:01:15;;;;;;;5.25;2.10;;;25.90;69.40;;;;;;4963528;28;20031;-72
2022/06/17 09:04:03;;;;;;;4.75;2.25;;;25.70;68.80;;;;;;4977191;28;20115;-72
2022/06/17 09:06:46;;;;;;;3.22;2.08;;;25.90;69.60;;;;;;4976945;28;20067;-72
2022/06/17 09:09:29;;;;;;;4.82;2.08;;;26.20;68.80;;;;;;4978715;28;20039;-76
2022/06/17 09:12:35;;;;;;;4.88;2.15;;;25.90;69.70;;;;;;4978842;28;20039;-73
2022/06/17 09:15:25;;;;;;;3.15;2.25;;;25.70;69.70;;;;;;4973156;28;20055;-72
2022/06/17 09:18:12;;;;;;;3.00;2.33;;;26.30;67.90;;;;;;4957786;28;20039;-72
2022/06/17 09:20:44;;;;;;;3.60;2.25;;;26.20;67.70;;;;;;4957861;28;20031;-75
2022/06/17 09:23:13;;;;;;;5.72;2.20;;;26.20;67.70;;;;;;4962003;28;20031;-73
2022/06/17 09:25:43;;;;;;;4.82;2.03;;;26.20;65.80;;;;;;4967743;28;20048;-74
2022/06/17 09:28:54;;;;;;;3.75;1.98;;;26.00;67.70;;;;;;4958916;28;20092;-72
2022/06/17 09:31:28;;;;;;;4.28;2.20;;;26.60;64.30;;;;;;4968193;28;20126;-74
2022/06/17 09:34:11;;;;;;;4.35;2.13;;;27.00;64.80;;;;;;4978010;28;20035;-76
2022/06/17 09:36:43;;;;;;;5.75;2.28;;;27.00;62.40;;;;;;4976465;28;20071;-73
2022/06/17 09:39:33;;;;;;;5.68;1.90;;;27.00;65.90;;;;;;4977089;28;20039;-72
2022/06/17 09:42:06;;;;;;;5.47;2.05;;;27.40;62.90;;;;;;4977602;28;20413;-73
2022/06/17 09:44:45;;;;;;;3.50;2.08;;;27.50;63.30;;;;;;4959433;28;20055;-73
2022/06/17 09:47:30;;;;;;;2.65;1.90;;;27.50;60.70;;;;;;4958723;28;20046;-73
2022/06/17 09:50:09;;;;;;;2.40;1.65;;;27.50;63.70;;;;;;4958987;28;20039;-73
2022/06/17 09:53:02;;;;;;;5.40;1.88;;;27.40;60.60;;;;;;4963784;28;20038;-73
2022/06/17 09:55:33;;;;;;;3.40;2.00;;;27.70;59.50;;;;;;4966876;28;20046;-73
2022/06/17 09:58:45;;;;;;;4.07;2.05;;;27.90;59.70;;;;;;4958841;28;20040;-73
2022/06/17 10:01:12;;;;;;;4.22;1.77;;;27.90;59.20;;;;;;4958309;28;20052;-73
2022/06/17 10:03:39;;;;;;;5.53;2.03;;;28.20;57.10;;;;;;4970907;28;20043;-73
2022/06/17 10:06:21;;;;;;;4.18;2.10;;;28.50;59.00;;;;;;4962265;28;20047;-73
2022/06/17 10:08:53;;;;;;;2.85;1.92;;;29.10;57.40;;;;;;4957391;28;20406;-73
2022/06/17 10:11:40;;;;;;;3.88;1.98;;;28.90;55.90;;;;;;4958885;28;20035;-73
2022/06/17 10:14:24;;;;;;;3.65;1.55;;;28.20;57.70;;;;;;4973166;28;20027;-73
2022/06/17 10:20:14;;;;;;;4.03;1.77;;;29.20;55.80;;;;;;4977584;28;20035;-72
2022/06/17 10:22:49;;;;;;;3.85;1.75;;;28.90;53.90;;;;;;4974784;28;20457;-73
2022/06/17 10:25:50;;;;;;;3.95;1.70;;;28.70;54.70;;;;;;4967446;28;20039;-73
2022/06/17 10:28:49;;;;;;;1.92;1.80;;;28.00;54.90;;;;;;4962929;28;20438;-73
2022/06/17 10:31:18;;;;;;;3.20;1.80;;;27.90;56.70;;;;;;4958255;28;20098;-73
2022/06/17 10:33:44;;;;;;;4.32;1.77;;;27.60;57.40;;;;;;4969071;28;20032;-74
2022/06/17 10:36:10;;;;;;;2.13;1.70;;;27.80;57.40;;;;;;4976934;28;20046;-72
2022/06/17 10:38:47;;;;;;;4.15;1.48;;;28.00;57.50;;;;;;4960558;28;20024;-72
2022/06/17 10:41:14;;;;;;;2.70;1.42;;;28.20;56.00;;;;;;4958356;28;20229;-72
2022/06/17 10:43:49;;;;;;;2.75;1.48;;;28.30;56.40;;;;;;4957938;28;20035;-72
2022/06/17 10:46:21;;;;;;;1.63;1.38;;;28.20;55.80;;;;;;4969694;28;20253;-72
2022/06/17 10:49:22;;;;;;;2.60;1.60;;;28.10;55.40;;;;;;4957766;28;20055;-72
2022/06/17 10:51:52;;;;;;;3.08;1.48;;;28.40;56.00;;;;;;4957047;28;20159;-72
2022/06/17 10:54:22;;;;;;;1.95;1.50;;;28.60;53.30;;;;;;4957055;28;20071;-73
2022/06/17 10:57:05;;;;;;;2.35;1.60;;;28.70;55.30;;;;;;4970781;28;20882;-72
2022/06/17 10:59:42;;;;;;;1.50;1.33;;;29.30;56.10;;;;;;4957980;28;20042;-72
2022/06/17 11:02:30;;;;;;;2.85;1.65;;;29.50;52.70;;;;;;4957976;28;20039;-72
2022/06/17 11:05:01;;;;;;;1.63;1.42;;;29.80;50.80;;;;;;4963484;28;20163;-73
2022/06/17 11:07:33;;;;;;;4.07;1.63;;;30.10;50.80;;;;;;4965473;28;20036;-72
2022/06/17 11:10:14;;;;;;;2.75;1.60;;;29.60;54.40;;;;;;4957609;28;20091;-72
2022/06/17 11:13:06;;;;;;;7.15;2.00;;;29.60;51.50;;;;;;4957772;28;20852;-72
2022/06/17 11:15:44;;;;;;;4.60;1.65;;;29.10;53.50;;;;;;4966925;28;20045;-72
2022/06/17 11:18:33;;;;;;;3.22;1.70;;;29.40;52.40;;;;;;4960426;28;20040;-73
2022/06/17 11:21:03;;;;;;;3.30;1.50;;;29.80;52.60;;;;;;4957527;28;20063;-73
2022/06/17 11:23:33;;;;;;;1.52;1.40;;;29.90;51.50;;;;;;4957171;28;20039;-72
2022/06/17 11:26:15;;;;;;;5.97;1.58;;;29.90;53.30;;;;;;4969013;28;20050;-72
2022/06/17 11:28:53;;;;;;;3.28;1.42;;;30.10;51.90;;;;;;4974975;28;20531;-72
2022/06/17 11:31:21;;;;;;;4.90;1.63;;;30.30;51.80;;;;;;4987834;23;20070;-75
2022/06/17 11:33:53;;;;;;;1.45;1.35;;;30.40;51.70;;;;;;4975558;28;20035;-75
2022/06/17 11:36:21;;;;;;;2.55;1.20;;;30.40;50.40;;;;;;4969683;28;20122;-75
2022/06/17 11:38:47;;;;;;;3.40;1.30;;;30.50;49.60;;;;;;4962400;28;20039;-75
2022/06/17 11:41:41;;;;;;;3.20;1.60;;;30.60;49.00;;;;;;4937589;28;20032;-75
2022/06/17 11:44:17;;;;;;;4.20;1.52;;;30.70;52.30;;;;;;4937640;28;20116;-75
2022/06/17 11:46:56;;;;;;;3.60;1.40;;;31.00;49.40;;;;;;4945606;28;20048;-77
2022/06/17 11:49:22;;;;;;;2.83;1.45;;;30.80;51.20;;;;;;4957000;28;20522;-77
2022/06/17 11:52:00;;;;;;;2.97;1.25;;;30.40;52.50;;;;;;4961627;28;20130;-76
2022/06/17 11:54:32;;;;;;;1.30;1.17;;;30.80;48.50;;;;;;4975486;28;20039;-77
2022/06/17 11:56:59;;;;;;;1.10;1.00;;;30.90;47.60;;;;;;4956243;28;20071;-77
2022/06/17 11:59:32;;;;;;;1.60;1.02;;;31.30;47.40;;;;;;4956360;28;20123;-76
2022/06/17 12:01:57;;;;;;;1.45;1.27;;;31.80;46.00;;;;;;4956769;28;20044;-76
2022/06/17 12:04:41;;;;;;;3.08;1.20;;;31.90;47.00;;;;;;4956300;28;20028;-77
2022/06/17 12:07:31;;;;;;;2.25;1.42;;;31.80;45.50;;;;;;4955739;28;20065;-77
2022/06/17 12:10:21;;;;;;;2.63;1.40;;;31.90;47.20;;;;;;4956381;28;20028;-76
2022/06/17 12:12:51;;;;;;;2.78;1.30;;;31.80;50.30;;;;;;4956621;28;20035;-77
2022/06/17 12:15:36;;;;;;;2.40;1.35;;;32.00;44.90;;;;;;4956555;28;20063;-77
2022/06/17 12:18:03;;;;;;;1.50;1.20;;;32.00;45.70;;;;;;4960311;28;20528;-77
2022/06/17 12:20:49;;;;;;;1.55;1.20;;;32.20;43.20;;;;;;4955140;28;20064;-78
2022/06/17 12:23:26;;;;;;;2.47;1.20;;;32.10;43.50;;;;;;4956613;28;20047;-77
2022/06/17 12:26:01;;;;;;;3.40;1.23;;;32.00;46.10;;;;;;4956047;28;20048;-77
2022/06/17 12:28:43;;;;;;;2.83;1.40;;;32.20;45.40;;;;;;4956852;28;20040;-77
2022/06/17 12:31:22;;;;;;;1.73;1.40;;;31.80;46.30;;;;;;4956318;28;20776;-77
2022/06/17 12:34:26;;;;;;;4.30;1.20;;;32.10;50.50;;;;;;4956688;28;20111;-76
2022/06/17 12:36:55;;;;;;;2.05;1.25;;;32.60;47.00;;;;;;4955696;28;20044;-76
2022/06/17 12:40:10;;;;;;;1.25;1.13;;;32.10;44.30;;;;;;4956410;28;20484;-77
2022/06/17 12:43:13;;;;;;;1.50;1.20;;;32.30;43.00;;;;;;4959277;28;20055;-76
2022/06/17 12:45:49;;;;;;;2.45;1.27;;;32.20;46.50;;;;;;4956700;28;20193;-78
2022/06/17 12:48:24;;;;;;;3.35;1.20;;;32.40;43.50;;;;;;4958127;28;20028;-80
2022/06/17 12:54:11;;;;;;;1.20;1.10;;;32.40;45.40;;;;;;4953699;28;20028;-77
2022/06/17 12:57:04;;;;;;;1.15;0.90;;;32.80;44.00;;;;;;4956816;28;20060;-77
2022/06/17 12:59:48;;;;;;;1.17;1.00;;;32.60;39.50;;;;;;4955357;28;20040;-77
2022/06/17 13:02:42;;;;;;;2.35;1.20;;;32.90;41.00;;;;;;4955825;28;20036;-77
2022/06/17 13:05:17;;;;;;;1.50;0.90;;;33.20;44.10;;;;;;4953704;28;20063;-77
2022/06/17 13:07:52;;;;;;;1.50;1.10;;;33.60;41.30;;;;;;4955946;28;20040;-77
2022/06/17 13:10:41;;;;;;;1.45;1.13;;;33.50;39.60;;;;;;4956383;28;20036;-75
2022/06/17 13:13:30;;;;;;;5.00;1.08;;;33.60;41.20;;;;;;4956133;28;20063;-77
2022/06/17 13:16:02;;;;;;;3.03;1.02;;;33.50;40.50;;;;;;4956233;28;20128;-76
2022/06/17 13:18:50;;;;;;;1.33;1.08;;;33.40;41.10;;;;;;4956333;28;20035;-75
2022/06/17 13:21:25;;;;;;;4.07;1.10;;;33.70;40.90;;;;;;4955677;28;20067;-77
2022/06/17 13:24:00;;;;;;;1.92;1.00;;;33.90;40.80;;;;;;4957356;28;20043;-77
2022/06/17 13:26:35;;;;;;;2.58;1.30;;;34.60;40.70;;;;;;4954631;28;20113;-78
2022/06/17 13:29:06;;;;;;;1.77;1.10;;;35.20;41.30;;;;;;4970646;28;20047;-76
2022/06/17 13:31:50;;;;;;;1.48;1.00;;;35.70;40.00;;;;;;4958220;28;20099;-78
2022/06/17 13:34:23;;;;;;;2.92;1.10;;;36.20;39.20;;;;;;4959784;28;20040;-76
2022/06/17 13:37:16;;;;;;;1.60;0.90;;;36.70;36.70;;;;;;4959457;28;20406;-78
2022/06/17 13:39:47;;;;;;;1.42;0.95;;;36.40;35.60;;;;;;4940407;28;20036;-76
2022/06/17 13:42:16;;;;;;;1.90;0.85;;;36.90;39.10;;;;;;4947068;28;20023;-77
2022/06/17 13:45:07;;;;;;;1.65;0.85;;;36.70;38.30;;;;;;4956924;28;20444;-75
2022/06/17 13:47:54;;;;;;;2.53;0.90;;;36.90;33.60;;;;;;4957971;28;20028;-77
2022/06/17 13:50:22;;;;;;;1.02;0.80;;;37.20;34.40;;;;;;4959107;28;20574;-78
2022/06/17 13:53:03;;;;;;;2.22;1.10;;;37.50;34.00;;;;;;4960287;28;20035;-81
2022/06/17 13:55:47;;;;;;;1.55;1.00;;;38.00;34.50;;;;;;4958593;28;20119;-77
2022/06/17 13:58:45;;;;;;;1.20;0.90;;;38.70;36.90;;;;;;4956949;28;20460;-76
2022/06/17 14:01:22;;;;;;;1.60;1.00;;;38.50;35.70;;;;;;4963784;28;20048;-76
2022/06/17 14:03:54;;;;;;;2.30;1.30;;;39.50;34.20;;;;;;4972951;28;20911;-76
2022/06/17 14:06:49;;;;;;;2.65;1.05;;;39.50;33.80;;;;;;4957951;28;20066;-76
2022/06/17 14:09:38;;;;;;;2.47;1.20;;;39.30;36.50;;;;;;4958418;28;20086;-76
2022/06/17 14:12:05;;;;;;;1.15;1.00;;;39.70;33.70;;;;;;4958429;28;20039;-76
2022/06/17 14:14:34;;;;;;;1.20;1.10;;;39.60;32.90;;;;;;4958567;28;20032;-76
2022/06/17 14:17:02;;;;;;;1.60;1.15;;;40.60;32.20;;;;;;4957886;28;20088;-76
2022/06/17 14:19:40;;;;;;;2.38;1.23;;;39.00;31.60;;;;;;4958085;28;20067;-76
2022/06/17 14:22:22;;;;;;;2.25;1.25;;;39.30;34.30;;;;;;4958243;28;20603;-76
2022/06/17 14:24:47;;;;;;;1.35;1.25;;;38.50;33.30;;;;;;4957950;28;20423;-77
2022/06/17 14:27:33;;;;;;;1.98;1.20;;;39.90;34.40;;;;;;4957878;28;20048;-77
2022/06/17 14:30:18;;;;;;;1.13;1.02;;;39.70;32.50;;;;;;4936732;29;20044;-77
2022/06/17 14:32:44;;;;;;;1.50;1.30;;;40.50;32.00;;;;;;4938852;29;20051;-77
2022/06/17 14:35:27;;;;;;;3.38;1.25;;;39.70;32.60;;;;;;4938842;29;20067;-76
2022/06/17 14:38:11;;;;;;;2.65;1.20;;;40.90;32.10;;;;;;4943421;28;20035;-76
2022/06/17 14:43:30;;;;;;;1.45;1.35;;;40.60;30.70;;;;;;4938046;28;20039;-76
2022/06/17 14:46:01;;;;;;;1.65;1.50;;;39.60;32.70;;;;;;4938717;28;20044;-76
2022/06/17 14:48:45;;;;;;;1.40;1.30;;;40.50;40.30;;;;;;4940924;28;20036;-76
2022/06/17 14:51:31;;;;;;;1.50;1.40;;;40.50;33.40;;;;;;4966491;28;20038;-76
2022/06/17 14:53:57;;;;;;;2.92;1.50;;;41.10;30.80;;;;;;4956509;28;20027;-77
2022/06/17 14:56:22;;;;;;;1.60;1.48;;;41.70;33.90;;;;;;4957775;28;20036;-73
2022/06/17 14:58:56;;;;;;;1.48;1.38;;;42.00;31.60;;;;;;4954263;28;20044;-73
2022/06/17 15:01:45;;;;;;;1.60;1.50;;;40.70;30.40;;;;;;4956873;28;20243;-73
2022/06/17 15:04:24;;;;;;;1.80;1.33;;;41.00;30.50;;;;;;4956715;28;20485;-74
2022/06/17 15:06:52;;;;;;;1.50;1.40;;;42.60;32.70;;;;;;4955729;28;20497;-77
2022/06/17 15:09:30;;;;;;;1.70;1.23;;;42.40;29.30;;;;;;4956426;28;20044;-75
2022/06/17 15:12:05;;;;;;;1.80;1.30;;;41.60;30.70;;;;;;4958558;28;20039;-72
2022/06/17 15:14:41;;;;;;;1.73;1.60;;;41.90;29.40;;;;;;4955817;28;20039;-72
2022/06/17 15:17:15;;;;;;;1.65;1.30;;;41.40;31.10;;;;;;4967556;28;20035;-72
2022/06/17 15:19:45;;;;;;;1.50;1.40;;;43.00;29.70;;;;;;4956081;28;20047;-73
2022/06/17 15:22:13;;;;;;;1.50;1.40;;;43.50;30.10;;;;;;4959381;28;20035;-72
2022/06/17 15:25:10;;;;;;;2.03;1.50;;;43.80;28.20;;;;;;4960589;28;20039;-72
2022/06/17 15:28:01;;;;;;;1.60;1.50;;;43.20;33.40;;;;;;4955311;28;20031;-71
2022/06/17 15:30:34;;;;;;;2.60;1.50;;;43.30;28.10;;;;;;4961384;28;20103;-72
2022/06/17 15:33:17;;;;;;;2.63;1.60;;;43.90;28.50;;;;;;4952226;28;20205;-72
2022/06/17 15:35:45;;;;;;;1.52;1.30;;;44.30;28.50;;;;;;4955843;28;20564;-72
2022/06/17 15:38:13;;;;;;;1.30;1.23;;;45.00;26.90;;;;;;4956588;28;20034;-72
2022/06/17 15:40:39;;;;;;;3.63;1.40;;;44.50;28.90;;;;;;4957827;28;20475;-72
2022/06/17 15:43:07;;;;;;;1.88;1.48;;;43.90;29.80;;;;;;4956561;28;20043;-72
2022/06/17 15:45:33;;;;;;;1.40;1.30;;;43.30;33.30;;;;;;4956027;28;20036;-72
2022/06/17 15:48:22;;;;;;;1.60;1.25;;;42.60;31.20;;;;;;4967673;28;20032;-72
2022/06/17 15:51:01;;;;;;;1.50;1.38;;;42.40;30.40;;;;;;4956372;28;20048;-75
2022/06/17 15:53:36;;;;;;;2.45;1.38;;;42.40;30.00;;;;;;4973411;28;20039;-73
2022/06/17 15:56:07;;;;;;;1.80;1.70;;;43.90;32.10;;;;;;4972104;28;20071;-74
2022/06/17 15:58:36;;;;;;;3.05;1.50;;;44.70;28.50;;;;;;4962843;28;20106;-76
2022/06/17 16:01:13;;;;;;;1.50;1.40;;;43.80;28.70;;;;;;4968836;28;20044;-75
2022/06/17 16:03:57;;;;;;;2.50;1.40;;;43.50;29.80;;;;;;4956935;28;20163;-74
2022/06/17 16:06:45;;;;;;;2.28;1.48;;;43.50;29.60;;;;;;4956411;28;20042;-74
2022/06/17 16:09:23;;;;;;;2.28;1.55;;;43.80;27.70;;;;;;4956986;28;20043;-76
2022/06/17 16:11:49;;;;;;;1.95;1.63;;;43.80;33.20;;;;;;4956454;28;20106;-76
2022/06/17 16:14:35;;;;;;;2.35;1.25;;;43.20;28.50;;;;;;4956339;28;20090;-75
2022/06/17 16:17:15;;;;;;;2.83;1.17;;;43.30;28.00;;;;;;4974033;28;20039;-76
2022/06/17 16:20:03;;;;;;;1.40;1.30;;;42.50;30.70;;;;;;4969719;28;20107;-75
2022/06/17 16:22:33;;;;;;;2.22;1.20;;;42.90;29.40;;;;;;4956004;28;20573;-76
2022/06/17 16:25:02;;;;;;;1.55;1.45;;;43.50;29.10;;;;;;4963754;28;20043;-76
2022/06/17 16:27:52;;;;;;;3.60;1.85;;;42.70;29.90;;;;;;4975535;28;20031;-76
2022/06/17 16:30:24;;;;;;;2.65;1.23;;;41.60;33.70;;;;;;4966345;28;20039;-76
2022/06/17 16:33:16;;;;;;;3.13;1.30;;;39.10;33.50;;;;;;4955785;28;20040;-75
2022/06/17 16:35:57;;;;;;;4.13;1.25;;;37.70;37.00;;;;;;4955843;28;20524;-76
2022/06/17 16:38:26;;;;;;;1.40;1.02;;;36.10;36.80;;;;;;4959962;28;20039;-76
2022/06/17 16:44:29;;;;;;;3.90;1.00;;;34.60;36.50;;;;;;4973539;28;20028;-75
2022/06/17 16:46:59;;;;;;;2.03;1.05;;;33.90;36.10;;;;;;4942917;28;20052;-75
2022/06/17 16:49:31;;;;;;;1.23;0.95;;;33.30;40.00;;;;;;4955726;28;20043;-75
2022/06/17 16:51:57;;;;;;;1.70;1.17;;;32.70;38.90;;;;;;4956145;28;20443;-75
2022/06/17 16:54:24;;;;;;;1.95;1.10;;;32.50;41.00;;;;;;4956070;28;20040;-75
2022/06/17 16:56:52;;;;;;;1.30;1.10;;;32.30;38.70;;;;;;4955635;28;20050;-75
2022/06/17 16:59:18;;;;;;;2.30;1.13;;;32.20;43.70;;;;;;4970631;28;20036;-75
2022/06/17 17:01:45;;;;;;;2.28;1.10;;;32.10;43.00;;;;;;4955541;28;20040;-76
2022/06/17 17:04:12;;;;;;;1.70;1.00;;;32.10;43.30;;;;;;4954648;28;20046;-77
2022/06/17 17:06:38;;;;;;;2.55;1.23;;;32.00;39.60;;;;;;4958413;28;20040;-77
2022/06/17 17:09:05;;;;;;;1.48;0.98;;;31.80;42.90;;;;;;4958911;28;20035;-77
2022/06/17 17:11:30;;;;;;;1.80;1.00;;;31.50;44.60;;;;;;4960039;28;20094;-79
2022/06/17 17:13:57;;;;;;;2.83;1.10;;;31.50;45.60;;;;;;4959866;28;20544;-83
2022/06/17 17:16:23;;;;;;;1.48;0.95;;;31.00;43.80;;;;;;4961025;28;20032;-78
2022/06/17 17:18:49;;;;;;;2.55;1.30;;;30.90;48.40;;;;;;4960235;28;20083;-76
2022/06/17 17:21:19;;;;;;;2.55;1.20;;;30.90;46.90;;;;;;4974316;28;20508;-77
2022/06/17 17:23:45;;;;;;;1.42;1.10;;;30.80;46.90;;;;;;4961164;28;20036;-79
2022/06/17 17:26:12;;;;;;;1.63;1.08;;;30.70;42.90;;;;;;4975390;28;20142;-77
2022/06/17 17:28:38;;;;;;;1.33;1.00;;;30.60;42.40;;;;;;4960476;28;20035;-78
2022/06/17 17:31:04;;;;;;;2.30;1.55;;;30.50;42.50;;;;;;4974439;23;20036;-69
2022/06/17 17:33:30;;;;;;;1.48;1.20;;;30.40;47.00;;;;;;4978315;28;20052;-71
2022/06/17 17:35:56;;;;;;;3.42;1.20;;;30.20;46.30;;;;;;4977705;28;20035;-71
2022/06/17 17:38:23;;;;;;;1.73;0.98;;;30.10;47.70;;;;;;4959080;28;20038;-71
2022/06/17 17:40:50;;;;;;;1.52;1.00;;;30.00;49.10;;;;;;4958838;28;20063;-71
2022/06/17 17:43:17;;;;;;;2.25;1.20;;;29.90;49.30;;;;;;4958815;28;20036;-71